Terminal Aerodrome Forecast
Issued by NWS Tallahassee, FL

Home | Current Version | Previous Version | Text Only | Print | Product List | Glossary On
Versions: 1 2 3 4 5 6 7 8 9 10 11 12 13 14 15 16 17 18 19 20 21 22 23 24
000
FTUS42 KTAE 281100
TAFTLH
TAF
KTLH 281120Z 2812/0112 05007KT P6SM OVC025
     FM281400 05009KT 5SM -DZ BR VCSH OVC015
     FM282200 04008KT P6SM FEW007 OVC015
     FM010400 04008KT P6SM OVC007
     FM010800 04007KT 4SM BR OVC003=

USA.gov is the U.S. government's official web portal to all federal, state and local government web resources and services.